Time;durP1;ratioP1;P1;durP2;ratioP2;P2;SDS_P1;SDS_P2;PMS_P1;PMS_P2;Temp;Humidity;BMP_temperature;BMP_pressure;BME280_temperature;BME280_humidity;BME280_pressure;Samples;Min_cycle;Max_cycle;Signal;HPM_P1;HPM_P2
2023/10/24 00:02:08;;;;;;;8.90;4.40;;;13.60;74.10;;;;;;5052077;28;20374;-75
2023/10/24 00:04:34;;;;;;;11.50;5.20;;;13.60;75.00;;;;;;5051724;28;20379;-75
2023/10/24 00:06:59;;;;;;;10.20;5.20;;;13.60;74.20;;;;;;5052337;28;20382;-75
2023/10/24 00:09:25;;;;;;;10.63;5.07;;;13.70;74.60;;;;;;5052064;28;20381;-76
2023/10/24 00:11:51;;;;;;;9.88;4.93;;;13.70;74.80;;;;;;5051787;28;20471;-75
2023/10/24 00:14:16;;;;;;;10.23;5.03;;;13.70;74.20;;;;;;5051841;28;20417;-75
2023/10/24 00:16:42;;;;;;;9.20;4.67;;;13.80;72.00;;;;;;5052255;28;20396;-75
2023/10/24 00:19:07;;;;;;;9.77;5.20;;;13.80;72.70;;;;;;5052221;28;20393;-75
2023/10/24 00:21:33;;;;;;;9.48;5.20;;;13.80;73.50;;;;;;5052406;28;20390;-76
2023/10/24 00:23:59;;;;;;;7.78;4.72;;;13.80;71.70;;;;;;5050303;28;20400;-75
2023/10/24 00:26:24;;;;;;;6.90;4.37;;;13.80;71.70;;;;;;5052087;28;20381;-75
2023/10/24 00:28:50;;;;;;;9.40;4.83;;;13.70;74.00;;;;;;5052260;28;20863;-76
2023/10/24 00:31:15;;;;;;;9.45;4.72;;;13.80;72.20;;;;;;5051649;28;20401;-74
2023/10/24 00:33:41;;;;;;;10.57;4.63;;;13.80;72.00;;;;;;5051751;28;20472;-76
2023/10/24 00:36:06;;;;;;;10.33;5.30;;;13.80;73.50;;;;;;5051786;28;20381;-76
2023/10/24 00:38:33;;;;;;;9.73;4.50;;;13.80;72.20;;;;;;5051611;28;20543;-75
2023/10/24 00:40:59;;;;;;;7.68;4.70;;;13.80;72.40;;;;;;5051290;28;20395;-75
2023/10/24 00:43:24;;;;;;;7.40;4.53;;;13.80;72.70;;;;;;5051279;28;20377;-75
2023/10/24 00:45:50;;;;;;;8.30;4.78;;;13.90;70.30;;;;;;5051820;28;20476;-76
2023/10/24 00:48:16;;;;;;;7.55;4.20;;;13.90;70.90;;;;;;5052545;28;20385;-77
2023/10/24 00:50:42;;;;;;;8.03;4.20;;;13.80;72.50;;;;;;5051987;28;20439;-75
2023/10/24 00:53:08;;;;;;;7.97;4.85;;;13.90;72.40;;;;;;5050093;28;20393;-75
2023/10/24 00:55:36;;;;;;;10.82;4.85;;;13.90;71.70;;;;;;5052174;28;20436;-75
2023/10/24 00:58:02;;;;;;;10.35;4.80;;;13.80;71.90;;;;;;5051829;28;20427;-75
2023/10/24 01:00:28;;;;;;;10.90;4.67;;;13.80;72.70;;;;;;5051275;28;20460;-76
2023/10/24 01:02:55;;;;;;;9.93;4.70;;;13.80;73.20;;;;;;5051642;28;20412;-76
2023/10/24 01:05:21;;;;;;;8.23;4.20;;;13.90;71.70;;;;;;5053830;28;20381;-76
2023/10/24 01:07:47;;;;;;;10.60;4.55;;;14.00;70.30;;;;;;5053768;28;20459;-76
2023/10/24 01:10:12;;;;;;;6.90;3.92;;;14.00;69.70;;;;;;5052545;28;20883;-74
2023/10/24 01:12:39;;;;;;;11.90;4.50;;;14.00;70.20;;;;;;5051736;28;20389;-75
2023/10/24 01:15:06;;;;;;;6.35;4.38;;;14.00;69.70;;;;;;5052475;28;20455;-75
2023/10/24 01:17:31;;;;;;;10.40;3.90;;;14.00;68.40;;;;;;5052107;28;20551;-75
2023/10/24 01:19:57;;;;;;;9.30;4.37;;;14.00;68.20;;;;;;5053054;28;20416;-76
2023/10/24 01:22:23;;;;;;;6.57;4.10;;;14.10;68.60;;;;;;5053735;28;20378;-74
2023/10/24 01:24:50;;;;;;;5.57;3.90;;;14.10;68.90;;;;;;5054001;28;20424;-75
2023/10/24 01:27:18;;;;;;;6.07;4.10;;;14.00;69.60;;;;;;5053621;28;20480;-75
2023/10/24 01:29:44;;;;;;;9.98;4.18;;;14.00;69.70;;;;;;5053877;28;20868;-74
2023/10/24 01:32:09;;;;;;;6.85;4.40;;;14.00;70.20;;;;;;5053132;28;20409;-74
2023/10/24 01:34:35;;;;;;;8.43;4.47;;;14.10;69.20;;;;;;5053278;28;20389;-76
2023/10/24 01:37:00;;;;;;;8.93;4.40;;;14.10;68.20;;;;;;5050983;28;20494;-75
2023/10/24 01:39:26;;;;;;;15.45;4.50;;;14.10;68.80;;;;;;5051850;28;20381;-75
2023/10/24 01:41:52;;;;;;;9.48;4.40;;;13.90;70.10;;;;;;5051524;28;20941;-75
2023/10/24 01:44:17;;;;;;;9.70;4.77;;;14.00;70.20;;;;;;5050785;28;20388;-75
2023/10/24 01:46:43;;;;;;;7.10;4.10;;;13.90;71.20;;;;;;5050840;28;20373;-76
2023/10/24 01:49:08;;;;;;;11.63;4.60;;;13.90;72.40;;;;;;5050943;28;20491;-74
2023/10/24 01:51:35;;;;;;;8.50;4.53;;;14.00;71.30;;;;;;5050615;28;20384;-75
2023/10/24 01:54:00;;;;;;;6.68;4.15;;;14.00;70.60;;;;;;5051178;28;20389;-76
2023/10/24 01:56:26;;;;;;;7.23;4.30;;;14.00;70.00;;;;;;5051159;28;20472;-76
2023/10/24 01:58:51;;;;;;;9.43;4.70;;;14.00;70.70;;;;;;5050224;28;20405;-76
2023/10/24 02:01:17;;;;;;;9.27;4.70;;;14.00;71.10;;;;;;5051621;28;20377;-74
2023/10/24 02:03:42;;;;;;;9.90;4.40;;;14.00;70.60;;;;;;5051149;28;20374;-75
2023/10/24 02:06:08;;;;;;;9.63;4.57;;;13.90;70.90;;;;;;5065705;28;20382;-73
2023/10/24 02:08:34;;;;;;;7.60;4.20;;;13.90;72.00;;;;;;5072933;28;20479;-75
2023/10/24 02:11:00;;;;;;;8.70;4.40;;;13.90;72.20;;;;;;5073417;28;20441;-74
2023/10/24 02:13:25;;;;;;;6.60;4.50;;;13.90;72.20;;;;;;5073408;28;20412;-75
2023/10/24 02:15:54;;;;;;;12.23;5.00;;;13.90;71.80;;;;;;5072700;28;20381;-75
2023/10/24 02:18:20;;;;;;;9.10;4.10;;;13.90;72.10;;;;;;5069882;28;20413;-75
2023/10/24 02:20:45;;;;;;;7.47;4.30;;;13.90;70.80;;;;;;5067554;28;20382;-75
2023/10/24 02:23:11;;;;;;;7.57;3.70;;;14.00;69.00;;;;;;5067241;28;20408;-75
2023/10/24 02:25:37;;;;;;;10.60;4.20;;;14.00;68.70;;;;;;5061582;28;20447;-75
2023/10/24 02:28:02;;;;;;;6.90;4.07;;;14.00;69.90;;;;;;5051479;28;20447;-75
2023/10/24 02:30:28;;;;;;;5.10;3.33;;;14.00;69.30;;;;;;5061119;28;20865;-76
2023/10/24 02:33:00;;;;;;;5.23;3.60;;;14.10;68.50;;;;;;5065640;28;20429;-74
2023/10/24 02:35:26;;;;;;;6.72;3.60;;;14.10;67.80;;;;;;5057105;28;20394;-76
2023/10/24 02:37:51;;;;;;;9.57;3.50;;;13.90;69.70;;;;;;5062448;28;20420;-75
2023/10/24 02:40:18;;;;;;;6.30;4.07;;;14.00;69.00;;;;;;5060903;28;20475;-76
2023/10/24 02:42:43;;;;;;;6.70;4.30;;;13.90;70.00;;;;;;5050375;28;20385;-75
2023/10/24 02:45:09;;;;;;;7.93;4.50;;;14.00;69.80;;;;;;5050212;28;20461;-76
2023/10/24 02:47:35;;;;;;;8.80;4.20;;;13.90;70.80;;;;;;5051482;28;20472;-75
2023/10/24 02:50:00;;;;;;;6.13;4.20;;;13.80;71.40;;;;;;5054272;28;20412;-75
2023/10/24 02:52:28;;;;;;;8.63;4.22;;;13.80;72.40;;;;;;5053743;28;20388;-76
2023/10/24 02:54:54;;;;;;;6.40;4.10;;;13.80;72.40;;;;;;5054144;28;20880;-74
2023/10/24 02:57:19;;;;;;;7.47;4.20;;;13.80;73.70;;;;;;5057560;28;20490;-76
2023/10/24 02:59:45;;;;;;;10.30;4.47;;;13.70;74.30;;;;;;5053723;28;20382;-76
2023/10/24 03:02:10;;;;;;;10.80;4.60;;;13.70;74.20;;;;;;5054414;28;20572;-76
2023/10/24 03:04:36;;;;;;;9.73;4.40;;;13.60;75.00;;;;;;5054475;28;20385;-75
2023/10/24 03:07:02;;;;;;;8.93;4.23;;;13.60;76.20;;;;;;5056526;28;20767;-76
2023/10/24 03:09:28;;;;;;;9.20;4.20;;;13.60;77.00;;;;;;5054417;28;20391;-75
2023/10/24 03:11:54;;;;;;;7.60;3.90;;;13.50;78.00;;;;;;5052255;28;20381;-76
2023/10/24 03:14:19;;;;;;;12.83;4.67;;;13.70;75.30;;;;;;5053972;28;20377;-75
2023/10/24 03:16:45;;;;;;;8.73;4.13;;;13.60;75.70;;;;;;5053519;28;20409;-76
2023/10/24 03:19:10;;;;;;;10.48;4.40;;;13.60;77.50;;;;;;5053284;28;20404;-75
2023/10/24 03:21:36;;;;;;;6.22;4.18;;;13.60;77.40;;;;;;5053548;28;20446;-75
2023/10/24 03:24:02;;;;;;;5.87;4.20;;;13.50;78.40;;;;;;5053924;28;20385;-75
2023/10/24 03:26:28;;;;;;;6.75;4.35;;;13.50;79.00;;;;;;5053790;28;20381;-75
2023/10/24 03:28:53;;;;;;;10.73;4.60;;;13.60;79.00;;;;;;5055210;28;20440;-75
2023/10/24 03:31:19;;;;;;;4.73;3.80;;;13.50;78.40;;;;;;5073137;23;21210;-70
2023/10/24 03:33:44;;;;;;;3.97;3.20;;;13.60;78.60;;;;;;5074026;28;20905;-71
2023/10/24 03:36:12;;;;;;;7.40;3.70;;;13.60;77.00;;;;;;5074623;28;20830;-70
2023/10/24 03:38:38;;;;;;;6.37;3.13;;;13.60;76.80;;;;;;5074148;28;20407;-70
2023/10/24 03:41:04;;;;;;;6.77;3.10;;;13.60;77.20;;;;;;5074031;28;20399;-71
2023/10/24 03:43:30;;;;;;;7.63;3.50;;;13.60;77.30;;;;;;5074163;28;20380;-71
2023/10/24 03:45:55;;;;;;;4.97;2.97;;;13.60;77.20;;;;;;5073976;28;20376;-68
2023/10/24 03:48:21;;;;;;;6.40;2.90;;;13.60;76.00;;;;;;5075626;28;20388;-72
2023/10/24 03:50:46;;;;;;;6.72;2.78;;;13.60;74.00;;;;;;5088715;28;20410;-73
2023/10/24 03:53:12;;;;;;;5.00;2.67;;;13.70;72.40;;;;;;5089850;28;20406;-73
2023/10/24 03:55:37;;;;;;;3.57;2.00;;;13.70;72.40;;;;;;5079173;28;20861;-70
2023/10/24 03:58:03;;;;;;;2.47;1.80;;;13.70;67.80;;;;;;5073563;28;20598;-71
2023/10/24 04:00:30;;;;;;;2.80;1.90;;;13.80;66.90;;;;;;5075363;28;20887;-71
2023/10/24 04:02:56;;;;;;;1.60;1.05;;;13.80;65.20;;;;;;5074198;28;20384;-70
2023/10/24 04:05:22;;;;;;;5.10;1.50;;;13.80;61.30;;;;;;5074140;28;20458;-71
2023/10/24 04:07:48;;;;;;;3.00;1.30;;;13.80;61.60;;;;;;5074584;28;20395;-71
2023/10/24 04:10:15;;;;;;;1.92;1.38;;;13.80;61.50;;;;;;5074005;28;20386;-71
2023/10/24 04:12:41;;;;;;;1.38;1.20;;;13.70;62.30;;;;;;5072512;28;20402;-70
2023/10/24 04:15:08;;;;;;;2.30;1.10;;;13.70;61.40;;;;;;5072457;28;20379;-69
2023/10/24 04:17:33;;;;;;;1.50;1.27;;;13.60;63.10;;;;;;5072522;28;20406;-69
2023/10/24 04:19:59;;;;;;;2.80;1.60;;;13.70;63.10;;;;;;5072346;28;20388;-70
2023/10/24 04:22:24;;;;;;;3.50;1.52;;;13.60;64.90;;;;;;5071942;28;20379;-72
2023/10/24 04:24:50;;;;;;;2.00;1.50;;;13.60;66.20;;;;;;5072095;28;20878;-71
2023/10/24 04:27:16;;;;;;;3.53;2.00;;;13.60;68.10;;;;;;5070608;28;20720;-70
2023/10/24 04:29:42;;;;;;;4.80;1.90;;;13.60;69.80;;;;;;5072584;28;20382;-70
2023/10/24 04:32:08;;;;;;;3.55;2.10;;;13.50;71.80;;;;;;5072722;28;20855;-72
2023/10/24 04:34:33;;;;;;;6.47;2.20;;;13.50;71.90;;;;;;5072144;28;20388;-71
2023/10/24 04:37:00;;;;;;;2.40;2.00;;;13.50;71.80;;;;;;5072541;28;20383;-72
2023/10/24 04:39:27;;;;;;;2.30;1.70;;;13.60;71.10;;;;;;5074940;28;20388;-70
2023/10/24 04:41:53;;;;;;;6.50;1.98;;;13.50;72.50;;;;;;5081191;28;20383;-72
2023/10/24 04:44:19;;;;;;;5.45;1.90;;;13.60;69.90;;;;;;5082426;28;20394;-71
2023/10/24 04:46:45;;;;;;;3.38;2.00;;;13.70;68.20;;;;;;5084349;28;20380;-72
2023/10/24 04:49:11;;;;;;;8.23;2.40;;;13.60;67.70;;;;;;5085085;28;20390;-70
2023/10/24 04:51:36;;;;;;;4.07;1.77;;;13.60;68.60;;;;;;5083651;28;20609;-71
2023/10/24 04:54:02;;;;;;;5.40;2.17;;;13.60;66.40;;;;;;5081510;28;20386;-70
2023/10/24 04:56:28;;;;;;;4.85;1.60;;;13.50;66.60;;;;;;5080900;28;20386;-72
2023/10/24 04:58:55;;;;;;;4.63;1.90;;;13.50;65.60;;;;;;5079489;28;20395;-72
2023/10/24 05:01:20;;;;;;;3.70;2.20;;;13.40;67.10;;;;;;5072450;28;20738;-71
2023/10/24 05:03:46;;;;;;;4.25;2.10;;;13.30;69.00;;;;;;5072162;28;20392;-71
2023/10/24 05:06:12;;;;;;;3.50;1.80;;;13.30;68.20;;;;;;5071748;28;20384;-71
2023/10/24 05:08:38;;;;;;;6.15;2.00;;;13.20;68.90;;;;;;5071417;28;20390;-71
2023/10/24 05:11:04;;;;;;;5.50;2.00;;;13.20;68.40;;;;;;5070972;28;20384;-71
2023/10/24 05:13:29;;;;;;;4.65;1.67;;;13.20;67.40;;;;;;5073032;28;20388;-73
2023/10/24 05:15:55;;;;;;;3.70;1.90;;;13.20;66.80;;;;;;5073310;28;20390;-71
2023/10/24 05:18:20;;;;;;;4.83;2.10;;;13.10;67.30;;;;;;5093111;28;20438;-71
2023/10/24 05:20:46;;;;;;;3.10;2.10;;;13.20;65.70;;;;;;5092162;28;20419;-73
2023/10/24 05:23:12;;;;;;;2.50;1.80;;;13.30;62.70;;;;;;5090834;28;20398;-71
2023/10/24 05:25:37;;;;;;;4.23;2.10;;;13.40;61.00;;;;;;5089219;28;20394;-69
2023/10/24 05:28:03;;;;;;;3.92;1.92;;;13.40;61.40;;;;;;5078691;28;20574;-71
2023/10/24 05:30:29;;;;;;;3.25;1.77;;;13.50;60.30;;;;;;5072025;28;20434;-71
2023/10/24 05:32:55;;;;;;;3.28;2.00;;;13.60;59.70;;;;;;5072609;28;20913;-71
2023/10/24 05:35:20;;;;;;;4.82;1.80;;;13.50;59.10;;;;;;5071585;28;20517;-71
2023/10/24 05:37:46;;;;;;;2.97;2.13;;;13.50;58.80;;;;;;5070847;28;20905;-71
2023/10/24 05:40:11;;;;;;;2.60;1.90;;;13.50;58.70;;;;;;5071530;28;20904;-72
2023/10/24 05:42:37;;;;;;;7.65;2.25;;;13.60;58.40;;;;;;5071007;28;20866;-71
2023/10/24 05:45:03;;;;;;;4.37;2.40;;;13.50;59.60;;;;;;5071697;28;20376;-70
2023/10/24 05:47:29;;;;;;;3.70;1.90;;;13.50;60.00;;;;;;5071890;28;20874;-70
2023/10/24 05:49:54;;;;;;;10.23;2.70;;;13.40;61.50;;;;;;5071933;28;20391;-72
2023/10/24 05:52:20;;;;;;;3.90;1.90;;;13.40;61.40;;;;;;5070936;28;20915;-71
2023/10/24 05:54:45;;;;;;;3.50;2.00;;;13.40;61.90;;;;;;5071260;28;20399;-70
2023/10/24 05:57:11;;;;;;;4.10;1.80;;;13.40;61.30;;;;;;5071788;28;20384;-71
2023/10/24 05:59:36;;;;;;;6.27;2.37;;;13.50;61.40;;;;;;5072602;28;20750;-70
2023/10/24 06:02:02;;;;;;;4.10;2.10;;;13.60;59.00;;;;;;5071020;28;20382;-71
2023/10/24 06:04:28;;;;;;;3.37;2.20;;;13.50;59.40;;;;;;5071107;28;20440;-72
2023/10/24 06:06:54;;;;;;;6.40;2.30;;;13.60;57.30;;;;;;5071914;28;20383;-71
2023/10/24 06:09:19;;;;;;;5.38;2.25;;;13.60;57.10;;;;;;5071657;28;20403;-70
2023/10/24 06:11:45;;;;;;;5.35;2.38;;;13.50;55.90;;;;;;5070632;28;20392;-69
2023/10/24 06:14:10;;;;;;;4.57;2.10;;;13.60;56.30;;;;;;5070006;28;20395;-72
2023/10/24 06:16:36;;;;;;;6.03;2.00;;;13.60;55.10;;;;;;5069354;28;20415;-70
2023/10/24 06:19:02;;;;;;;5.67;2.30;;;13.60;55.00;;;;;;5071375;28;20513;-72
2023/10/24 06:21:28;;;;;;;9.48;2.72;;;13.50;55.90;;;;;;5071582;28;20395;-70
2023/10/24 06:23:53;;;;;;;3.78;2.40;;;13.50;56.10;;;;;;5075897;28;20834;-72
2023/10/24 06:26:19;;;;;;;5.67;2.20;;;13.70;53.90;;;;;;5070440;28;20391;-71
2023/10/24 06:28:45;;;;;;;3.53;2.57;;;13.60;53.60;;;;;;5076650;28;20403;-72
2023/10/24 06:31:11;;;;;;;5.43;2.55;;;13.60;54.30;;;;;;5066421;28;20419;-70
2023/10/24 06:33:38;;;;;;;4.22;2.20;;;13.60;54.30;;;;;;5070784;28;20394;-72
2023/10/24 06:36:04;;;;;;;4.57;2.03;;;13.70;52.00;;;;;;5074942;28;20969;-72
2023/10/24 06:38:30;;;;;;;3.10;2.15;;;13.70;52.50;;;;;;5074999;28;20418;-70
2023/10/24 06:40:56;;;;;;;4.55;2.60;;;13.60;52.90;;;;;;5075119;28;20380;-71
2023/10/24 06:43:23;;;;;;;3.97;2.28;;;13.60;53.10;;;;;;5073543;28;20390;-72
2023/10/24 06:45:48;;;;;;;5.03;2.10;;;13.70;52.50;;;;;;5072800;28;20404;-70
2023/10/24 06:48:14;;;;;;;3.20;2.00;;;13.70;51.90;;;;;;5071466;28;20414;-71
2023/10/24 06:50:40;;;;;;;4.50;2.00;;;13.80;51.80;;;;;;5074861;28;20394;-72
2023/10/24 06:53:07;;;;;;;5.28;2.30;;;13.70;51.90;;;;;;5074153;28;20475;-72
2023/10/24 06:55:33;;;;;;;5.65;2.22;;;13.70;51.10;;;;;;5071976;28;20735;-71
2023/10/24 06:57:59;;;;;;;3.40;1.90;;;13.70;52.20;;;;;;5076558;28;20415;-71
2023/10/24 07:00:25;;;;;;;3.65;1.90;;;13.70;52.60;;;;;;5075123;28;20376;-72
2023/10/24 07:02:51;;;;;;;6.07;2.30;;;13.70;51.80;;;;;;5071505;28;20424;-70
2023/10/24 07:05:18;;;;;;;4.88;2.00;;;13.80;50.80;;;;;;5072830;28;20482;-72
2023/10/24 07:07:43;;;;;;;2.55;1.50;;;13.90;49.20;;;;;;5072372;28;20398;-71
2023/10/24 07:10:09;;;;;;;3.77;1.90;;;14.00;49.00;;;;;;5072095;28;20962;-71
2023/10/24 07:12:35;;;;;;;3.90;1.80;;;14.00;48.80;;;;;;5071980;28;20396;-71
2023/10/24 07:15:03;;;;;;;3.33;2.30;;;14.00;49.00;;;;;;5070426;28;20434;-71
2023/10/24 07:17:29;;;;;;;5.20;2.20;;;14.00;47.70;;;;;;5071287;28;20435;-71
2023/10/24 07:19:55;;;;;;;4.97;2.00;;;14.00;48.50;;;;;;5071313;28;20770;-71
2023/10/24 07:22:21;;;;;;;4.33;1.80;;;14.00;47.90;;;;;;5072326;28;20400;-70
2023/10/24 07:24:46;;;;;;;5.00;2.00;;;14.00;48.10;;;;;;5071147;28;20449;-70
2023/10/24 07:27:12;;;;;;;4.30;1.80;;;14.00;48.00;;;;;;5070636;28;20388;-72
2023/10/24 07:29:38;;;;;;;5.10;1.88;;;14.00;48.60;;;;;;5071375;28;20450;-72
2023/10/24 07:32:03;;;;;;;7.20;1.80;;;14.00;47.90;;;;;;5071053;28;20411;-69
2023/10/24 07:34:36;;;;;;;6.68;2.10;;;14.10;48.10;;;;;;5069638;28;20403;-70
2023/10/24 07:37:02;;;;;;;2.83;1.70;;;14.20;46.20;;;;;;5069693;28;20387;-75
2023/10/24 07:39:27;;;;;;;5.30;1.70;;;14.20;46.00;;;;;;5071812;28;20436;-72
2023/10/24 07:41:53;;;;;;;7.00;2.20;;;14.20;46.70;;;;;;5071685;28;20391;-72
2023/10/24 07:44:19;;;;;;;3.70;1.92;;;14.30;46.10;;;;;;5072633;28;20843;-71
2023/10/24 07:46:44;;;;;;;3.30;2.00;;;14.30;46.10;;;;;;5075347;28;20534;-72
2023/10/24 07:49:10;;;;;;;4.20;1.75;;;14.30;45.70;;;;;;5074428;28;20395;-73
2023/10/24 07:51:36;;;;;;;7.50;1.98;;;14.30;44.70;;;;;;5075412;28;20395;-73
2023/10/24 07:54:02;;;;;;;5.63;2.20;;;14.30;45.00;;;;;;5077238;28;20450;-72
2023/10/24 07:56:28;;;;;;;4.07;1.90;;;14.30;45.40;;;;;;5077030;28;20410;-70
2023/10/24 07:58:53;;;;;;;6.38;2.30;;;14.20;46.20;;;;;;5074660;28;20450;-71
2023/10/24 08:01:19;;;;;;;3.00;1.70;;;14.20;46.60;;;;;;5076396;28;20388;-71
2023/10/24 08:03:44;;;;;;;2.97;1.70;;;14.20;46.60;;;;;;5075061;28;20372;-72
2023/10/24 08:06:11;;;;;;;4.60;2.20;;;14.30;46.70;;;;;;5075837;28;20438;-73
2023/10/24 08:08:39;;;;;;;4.00;1.60;;;14.30;46.30;;;;;;5076435;28;21018;-72
2023/10/24 08:11:05;;;;;;;5.32;2.67;;;14.20;46.30;;;;;;5071869;28;20399;-71
2023/10/24 08:13:30;;;;;;;3.63;1.45;;;14.20;46.60;;;;;;5071387;28;20400;-70
2023/10/24 08:15:58;;;;;;;4.30;1.70;;;14.20;46.80;;;;;;5071103;28;20403;-73
2023/10/24 08:18:27;;;;;;;6.13;2.00;;;14.40;45.30;;;;;;5063134;28;20420;-72
2023/10/24 08:20:54;;;;;;;4.07;1.70;;;14.40;45.20;;;;;;5061833;28;20381;-71
2023/10/24 08:23:19;;;;;;;4.80;1.80;;;14.50;44.20;;;;;;5063256;28;20474;-71
2023/10/24 08:25:45;;;;;;;5.10;1.70;;;14.40;44.50;;;;;;5072471;28;20387;-71
2023/10/24 08:28:11;;;;;;;2.50;1.60;;;14.40;43.80;;;;;;5071106;28;20407;-71
2023/10/24 08:30:37;;;;;;;8.02;2.15;;;14.50;44.90;;;;;;5071221;28;20422;-71
2023/10/24 08:33:02;;;;;;;3.70;1.97;;;14.50;44.30;;;;;;5072930;28;20710;-70
2023/10/24 08:35:28;;;;;;;2.73;1.70;;;14.60;44.30;;;;;;5061205;28;20756;-71
2023/10/24 08:37:54;;;;;;;5.90;2.30;;;14.60;44.30;;;;;;5052684;28;20760;-69
2023/10/24 08:40:20;;;;;;;4.10;1.70;;;14.70;43.60;;;;;;5052106;28;20495;-71
2023/10/24 08:42:46;;;;;;;2.50;1.60;;;14.80;43.40;;;;;;5052292;28;20480;-71
2023/10/24 08:45:16;;;;;;;2.60;1.67;;;14.80;42.90;;;;;;5052101;28;20871;-71
2023/10/24 08:47:43;;;;;;;4.03;1.70;;;14.80;43.30;;;;;;5052459;28;20861;-69
2023/10/24 08:50:09;;;;;;;4.05;2.35;;;14.80;43.40;;;;;;5051367;28;20444;-70
2023/10/24 08:52:35;;;;;;;3.77;1.90;;;14.80;43.60;;;;;;5052290;28;20394;-72
2023/10/24 08:55:06;;;;;;;4.47;1.70;;;14.90;43.40;;;;;;5053142;28;20384;-70
2023/10/24 08:57:39;;;;;;;3.63;1.92;;;14.90;42.70;;;;;;5051877;28;20409;-71
2023/10/24 09:00:08;;;;;;;4.45;1.70;;;15.10;41.50;;;;;;5051905;28;20397;-71
2023/10/24 09:02:35;;;;;;;6.18;2.53;;;15.20;40.70;;;;;;5051173;28;20389;-70
2023/10/24 09:05:01;;;;;;;4.28;1.77;;;15.30;40.20;;;;;;5051763;28;20386;-70
2023/10/24 09:07:27;;;;;;;6.30;1.85;;;15.50;39.80;;;;;;5052108;28;20398;-71
2023/10/24 09:13:15;;;;;;;4.65;1.65;;;15.70;39.20;;;;;;5058114;28;20782;-70
2023/10/24 09:15:40;;;;;;;6.10;1.90;;;15.80;38.70;;;;;;5056900;28;20405;-70
2023/10/24 09:18:06;;;;;;;2.95;2.00;;;16.00;37.90;;;;;;5053609;28;20415;-70
2023/10/24 09:20:33;;;;;;;2.90;2.05;;;16.10;36.90;;;;;;5066766;28;20410;-70
2023/10/24 09:23:11;;;;;;;5.78;2.35;;;16.20;36.80;;;;;;5071393;28;20509;-70
2023/10/24 09:25:37;;;;;;;3.55;2.22;;;16.30;36.70;;;;;;5061592;28;20398;-70
2023/10/24 09:28:21;;;;;;;5.87;2.10;;;16.30;36.60;;;;;;5062128;28;20434;-70
2023/10/24 09:30:47;;;;;;;4.28;1.70;;;16.60;35.60;;;;;;5071058;28;20376;-71
2023/10/24 09:33:12;;;;;;;3.37;1.70;;;16.60;35.10;;;;;;5091059;23;20791;-77
2023/10/24 09:35:39;;;;;;;5.38;2.10;;;16.30;35.30;;;;;;5071687;28;20375;-77
2023/10/24 09:38:07;;;;;;;6.77;2.23;;;16.20;36.50;;;;;;5071132;28;20895;-77
2023/10/24 09:40:39;;;;;;;6.07;1.97;;;16.00;37.20;;;;;;5070866;28;20398;-77
2023/10/24 09:43:20;;;;;;;11.13;2.20;;;16.20;36.70;;;;;;5070317;28;20384;-76
2023/10/24 09:45:47;;;;;;;5.60;2.22;;;16.30;37.20;;;;;;5063175;28;20514;-76
2023/10/24 09:48:14;;;;;;;3.97;1.80;;;16.30;36.70;;;;;;5051827;28;20470;-77
2023/10/24 09:50:43;;;;;;;4.40;1.73;;;16.30;36.30;;;;;;5051619;28;20596;-76
2023/10/24 09:53:10;;;;;;;2.75;1.75;;;16.30;36.60;;;;;;5050001;28;20397;-77
2023/10/24 09:55:48;;;;;;;7.90;2.63;;;16.30;36.30;;;;;;5039501;28;20405;-77
2023/10/24 09:58:15;;;;;;;4.90;2.17;;;16.40;36.40;;;;;;5055946;28;20777;-76
2023/10/24 10:00:42;;;;;;;4.18;1.88;;;16.50;35.70;;;;;;5056216;28;20393;-76
2023/10/24 10:03:09;;;;;;;4.20;2.40;;;16.40;35.50;;;;;;5054173;28;20394;-75
2023/10/24 10:05:38;;;;;;;7.93;2.45;;;16.50;35.80;;;;;;5054708;28;20385;-77
2023/10/24 10:08:06;;;;;;;7.93;2.20;;;16.70;35.40;;;;;;5054948;28;20393;-77
2023/10/24 10:10:34;;;;;;;6.60;2.20;;;16.80;35.30;;;;;;5053302;28;20846;-75
2023/10/24 10:13:03;;;;;;;5.47;1.77;;;16.90;34.20;;;;;;5053624;28;20416;-77
2023/10/24 10:15:50;;;;;;;2.85;2.10;;;17.10;34.10;;;;;;5034790;28;20426;-77
2023/10/24 10:18:42;;;;;;;3.83;1.60;;;17.30;33.40;;;;;;5034754;28;20410;-76
2023/10/24 10:21:22;;;;;;;4.60;2.00;;;17.30;33.40;;;;;;5054410;28;20397;-77
2023/10/24 10:24:03;;;;;;;3.55;1.77;;;17.60;32.70;;;;;;5056381;28;20739;-77
2023/10/24 10:26:52;;;;;;;4.82;1.80;;;17.80;32.10;;;;;;5051015;28;20791;-77
2023/10/24 10:29:33;;;;;;;4.80;2.00;;;18.00;31.30;;;;;;5039541;28;20398;-76
2023/10/24 10:32:07;;;;;;;3.80;1.67;;;18.20;30.50;;;;;;5054838;28;20440;-76
2023/10/24 10:34:35;;;;;;;5.07;2.00;;;18.20;30.60;;;;;;5049697;28;20402;-77
2023/10/24 10:37:01;;;;;;;4.00;1.95;;;18.20;30.10;;;;;;5057125;28;20382;-77
2023/10/24 10:39:26;;;;;;;5.43;2.17;;;18.20;30.30;;;;;;5061244;28;20461;-77
2023/10/24 10:41:52;;;;;;;5.88;1.90;;;18.20;30.40;;;;;;5061134;28;20414;-77
2023/10/24 10:44:44;;;;;;;6.63;2.20;;;18.00;30.80;;;;;;5049075;28;20395;-78
2023/10/24 10:47:14;;;;;;;6.00;1.98;;;17.70;31.60;;;;;;5065462;28;20394;-78
2023/10/24 10:49:56;;;;;;;6.65;1.80;;;17.40;32.80;;;;;;5043348;28;20474;-76
2023/10/24 10:52:41;;;;;;;7.80;1.65;;;17.20;33.10;;;;;;5036884;28;20407;-75
2023/10/24 10:55:22;;;;;;;4.65;1.90;;;17.00;34.30;;;;;;5041260;28;20389;-77
2023/10/24 10:58:03;;;;;;;5.50;1.90;;;16.80;34.70;;;;;;5048475;28;20565;-75
2023/10/24 11:00:41;;;;;;;4.35;1.95;;;16.60;35.30;;;;;;5047851;28;20403;-75
2023/10/24 11:03:25;;;;;;;5.97;2.40;;;16.50;36.00;;;;;;5032608;28;20375;-76
2023/10/24 11:05:51;;;;;;;2.90;1.80;;;16.40;36.60;;;;;;5035920;28;20389;-76
2023/10/24 11:08:20;;;;;;;4.78;2.00;;;16.40;37.40;;;;;;5036761;28;20474;-77
2023/10/24 11:11:07;;;;;;;7.00;2.10;;;16.30;36.90;;;;;;5033952;28;20491;-76
2023/10/24 11:13:41;;;;;;;4.40;2.20;;;16.20;37.40;;;;;;5034611;28;20462;-75
2023/10/24 11:16:14;;;;;;;4.22;1.88;;;16.20;37.60;;;;;;5034984;28;20383;-75
2023/10/24 11:18:40;;;;;;;2.88;1.90;;;16.40;37.00;;;;;;5034200;28;20407;-74
2023/10/24 11:21:09;;;;;;;6.43;2.60;;;16.40;36.30;;;;;;5033003;28;20428;-75
2023/10/24 11:23:35;;;;;;;5.32;2.35;;;16.40;37.30;;;;;;5033122;28;20745;-75
2023/10/24 11:26:02;;;;;;;4.30;2.10;;;16.30;37.60;;;;;;5033277;28;20437;-75
2023/10/24 11:28:29;;;;;;;2.45;1.80;;;16.20;37.60;;;;;;5033945;28;20726;-75
2023/10/24 11:31:17;;;;;;;7.30;2.75;;;16.00;37.70;;;;;;5033401;28;20383;-75
2023/10/24 11:33:42;;;;;;;4.50;2.30;;;16.00;38.40;;;;;;5033467;28;20398;-76
2023/10/24 11:36:08;;;;;;;3.97;2.00;;;15.90;39.10;;;;;;5032811;28;20387;-75
2023/10/24 11:38:34;;;;;;;7.50;2.35;;;15.80;39.00;;;;;;5032845;28;20914;-75
2023/10/24 11:40:59;;;;;;;3.50;1.92;;;15.80;39.50;;;;;;5032578;28;20457;-75
2023/10/24 11:43:27;;;;;;;3.30;2.20;;;15.70;40.20;;;;;;5033417;28;20958;-76
2023/10/24 11:45:53;;;;;;;5.10;2.40;;;15.60;42.10;;;;;;5032456;28;20474;-76
2023/10/24 11:48:19;;;;;;;3.63;2.27;;;15.50;43.90;;;;;;5032281;28;20470;-76
2023/10/24 11:50:45;;;;;;;4.13;2.40;;;15.40;44.70;;;;;;5033648;28;20438;-75
2023/10/24 11:53:19;;;;;;;6.10;3.30;;;15.50;45.90;;;;;;5037464;28;20398;-75
2023/10/24 11:55:44;;;;;;;10.10;5.20;;;15.40;47.00;;;;;;5033627;28;20414;-75
2023/10/24 11:58:11;;;;;;;6.67;3.40;;;15.40;47.20;;;;;;5036112;28;20402;-75
2023/10/24 12:00:40;;;;;;;7.63;3.78;;;15.40;46.80;;;;;;5031495;28;20533;-77
2023/10/24 12:03:06;;;;;;;14.73;7.03;;;15.50;48.20;;;;;;5033330;28;20383;-75
2023/10/24 12:05:32;;;;;;;16.05;7.10;;;15.40;49.00;;;;;;5032744;28;20650;-76
2023/10/24 12:07:59;;;;;;;7.63;3.60;;;15.20;50.20;;;;;;5032770;28;20757;-76
2023/10/24 12:10:29;;;;;;;8.40;4.00;;;15.20;52.20;;;;;;5033073;28;20386;-76
2023/10/24 12:13:00;;;;;;;6.55;3.58;;;15.10;54.60;;;;;;5032887;28;20881;-75
2023/10/24 12:15:26;;;;;;;6.90;3.22;;;15.00;55.90;;;;;;5032481;28;20461;-75
2023/10/24 12:17:52;;;;;;;8.23;3.87;;;14.90;57.60;;;;;;5034063;28;20773;-75
2023/10/24 12:20:22;;;;;;;7.47;3.90;;;14.80;60.40;;;;;;5033931;28;20387;-75
2023/10/24 12:22:48;;;;;;;9.60;3.97;;;14.80;60.90;;;;;;5034752;28;20429;-75
2023/10/24 12:25:17;;;;;;;7.43;4.10;;;14.80;61.40;;;;;;5035163;28;20383;-74
2023/10/24 12:27:43;;;;;;;7.22;3.80;;;14.70;64.30;;;;;;5036701;28;20402;-75
2023/10/24 12:30:10;;;;;;;10.07;4.25;;;14.70;64.60;;;;;;5038523;28;20485;-76
2023/10/24 12:32:36;;;;;;;4.70;3.30;;;14.50;65.50;;;;;;5036418;28;20401;-74
2023/10/24 12:35:02;;;;;;;8.15;3.90;;;14.50;64.70;;;;;;5034385;28;20448;-76
2023/10/24 12:37:28;;;;;;;7.05;3.60;;;14.40;68.40;;;;;;5034606;28;20455;-77
2023/10/24 12:39:53;;;;;;;9.50;4.10;;;14.30;69.70;;;;;;5036336;28;20852;-74
2023/10/24 12:42:19;;;;;;;4.63;3.33;;;14.30;73.50;;;;;;5034549;28;20399;-77
2023/10/24 12:44:44;;;;;;;5.55;3.50;;;14.20;73.70;;;;;;5033542;28;20397;-76
2023/10/24 12:47:11;;;;;;;8.70;4.00;;;14.40;72.70;;;;;;5033616;28;20421;-76
2023/10/24 12:49:37;;;;;;;5.90;3.15;;;14.60;73.80;;;;;;5032895;28;20393;-76